sensor_id;sensor_type;location;lat;lon;timestamp;P1;durP1;ratioP1;P2;durP2;ratioP2
17261;SDS011;9873;52.236;21.002;2023-07-24T00:07:01;8.27;;;4.25;;
17261;SDS011;9873;52.236;21.002;2023-07-24T00:17:04;5.82;;;4.30;;
17261;SDS011;9873;52.236;21.002;2023-07-24T00:27:06;8.73;;;4.53;;
17261;SDS011;9873;52.236;21.002;2023-07-24T00:37:08;7.28;;;4.43;;
17261;SDS011;9873;52.236;21.002;2023-07-24T00:47:10;6.63;;;3.92;;
17261;SDS011;9873;52.236;21.002;2023-07-24T00:57:16;7.30;;;4.50;;
17261;SDS011;9873;52.236;21.002;2023-07-24T01:07:19;6.10;;;3.97;;
17261;SDS011;9873;52.236;21.002;2023-07-24T01:17:23;5.93;;;3.67;;
17261;SDS011;9873;52.236;21.002;2023-07-24T01:27:28;4.47;;;3.33;;
17261;SDS011;9873;52.236;21.002;2023-07-24T01:37:30;6.07;;;4.10;;
17261;SDS011;9873;52.236;21.002;2023-07-24T01:47:33;5.32;;;3.70;;
17261;SDS011;9873;52.236;21.002;2023-07-24T01:57:37;4.20;;;2.83;;
17261;SDS011;9873;52.236;21.002;2023-07-24T02:07:39;4.78;;;3.33;;
17261;SDS011;9873;52.236;21.002;2023-07-24T02:17:42;4.03;;;3.00;;
17261;SDS011;9873;52.236;21.002;2023-07-24T02:27:47;7.63;;;3.20;;
17261;SDS011;9873;52.236;21.002;2023-07-24T02:37:52;3.83;;;2.58;;
17261;SDS011;9873;52.236;21.002;2023-07-24T02:47:57;3.83;;;2.58;;
17261;SDS011;9873;52.236;21.002;2023-07-24T02:58:01;4.60;;;3.75;;
17261;SDS011;9873;52.236;21.002;2023-07-24T03:08:03;4.82;;;3.00;;
17261;SDS011;9873;52.236;21.002;2023-07-24T03:18:08;4.82;;;3.40;;
17261;SDS011;9873;52.236;21.002;2023-07-24T03:28:11;5.82;;;3.45;;
17261;SDS011;9873;52.236;21.002;2023-07-24T03:38:13;3.67;;;2.80;;
17261;SDS011;9873;52.236;21.002;2023-07-24T03:48:15;3.05;;;2.55;;
17261;SDS011;9873;52.236;21.002;2023-07-24T03:58:22;3.28;;;2.42;;
17261;SDS011;9873;52.236;21.002;2023-07-24T04:08:24;4.68;;;2.88;;
17261;SDS011;9873;52.236;21.002;2023-07-24T04:18:27;4.03;;;2.70;;
17261;SDS011;9873;52.236;21.002;2023-07-24T04:28:34;4.95;;;3.03;;
17261;SDS011;9873;52.236;21.002;2023-07-24T04:38:36;4.10;;;2.90;;
17261;SDS011;9873;52.236;21.002;2023-07-24T04:48:42;6.28;;;2.60;;
17261;SDS011;9873;52.236;21.002;2023-07-24T04:58:45;5.65;;;2.88;;
17261;SDS011;9873;52.236;21.002;2023-07-24T05:08:47;10.02;;;2.85;;
17261;SDS011;9873;52.236;21.002;2023-07-24T05:18:51;4.00;;;2.58;;
17261;SDS011;9873;52.236;21.002;2023-07-24T05:28:54;6.22;;;2.70;;
17261;SDS011;9873;52.236;21.002;2023-07-24T05:38:56;5.22;;;2.90;;
17261;SDS011;9873;52.236;21.002;2023-07-24T05:49:04;5.07;;;2.42;;
17261;SDS011;9873;52.236;21.002;2023-07-24T05:59:09;3.95;;;2.92;;
17261;SDS011;9873;52.236;21.002;2023-07-24T06:09:13;3.97;;;2.83;;
17261;SDS011;9873;52.236;21.002;2023-07-24T06:19:20;5.63;;;2.60;;
17261;SDS011;9873;52.236;21.002;2023-07-24T06:29:24;5.80;;;3.10;;
17261;SDS011;9873;52.236;21.002;2023-07-24T06:39:29;5.88;;;3.17;;
17261;SDS011;9873;52.236;21.002;2023-07-24T06:49:35;6.13;;;2.83;;
17261;SDS011;9873;52.236;21.002;2023-07-24T06:59:38;5.25;;;2.97;;
17261;SDS011;9873;52.236;21.002;2023-07-24T07:09:40;5.50;;;2.70;;
17261;SDS011;9873;52.236;21.002;2023-07-24T07:19:42;3.63;;;3.05;;
17261;SDS011;9873;52.236;21.002;2023-07-24T07:29:46;3.45;;;2.60;;
17261;SDS011;9873;52.236;21.002;2023-07-24T07:39:53;5.85;;;3.30;;
17261;SDS011;9873;52.236;21.002;2023-07-24T07:49:57;4.93;;;2.97;;
17261;SDS011;9873;52.236;21.002;2023-07-24T08:00:02;4.72;;;2.35;;
17261;SDS011;9873;52.236;21.002;2023-07-24T08:10:06;6.82;;;2.80;;
17261;SDS011;9873;52.236;21.002;2023-07-24T08:20:16;3.38;;;2.42;;
17261;SDS011;9873;52.236;21.002;2023-07-24T08:30:20;4.68;;;2.92;;
17261;SDS011;9873;52.236;21.002;2023-07-24T08:40:23;5.63;;;2.85;;
17261;SDS011;9873;52.236;21.002;2023-07-24T08:50:30;5.00;;;2.80;;
17261;SDS011;9873;52.236;21.002;2023-07-24T09:00:37;3.45;;;2.90;;
17261;SDS011;9873;52.236;21.002;2023-07-24T09:10:52;5.03;;;2.67;;
17261;SDS011;9873;52.236;21.002;2023-07-24T09:20:58;3.97;;;2.42;;
17261;SDS011;9873;52.236;21.002;2023-07-24T09:31:02;4.00;;;2.60;;
17261;SDS011;9873;52.236;21.002;2023-07-24T09:41:08;3.17;;;2.72;;
17261;SDS011;9873;52.236;21.002;2023-07-24T09:51:13;4.13;;;2.05;;
17261;SDS011;9873;52.236;21.002;2023-07-24T10:01:16;5.85;;;2.50;;
17261;SDS011;9873;52.236;21.002;2023-07-24T10:11:23;3.28;;;2.67;;
17261;SDS011;9873;52.236;21.002;2023-07-24T10:21:29;3.72;;;2.30;;
17261;SDS011;9873;52.236;21.002;2023-07-24T10:31:34;5.10;;;2.60;;
17261;SDS011;9873;52.236;21.002;2023-07-24T10:41:40;3.33;;;2.22;;
17261;SDS011;9873;52.236;21.002;2023-07-24T10:51:49;3.25;;;2.60;;
17261;SDS011;9873;52.236;21.002;2023-07-24T11:01:59;5.00;;;2.65;;
17261;SDS011;9873;52.236;21.002;2023-07-24T11:12:12;4.68;;;3.00;;
17261;SDS011;9873;52.236;21.002;2023-07-24T11:22:21;5.57;;;3.47;;
17261;SDS011;9873;52.236;21.002;2023-07-24T11:32:23;3.60;;;2.72;;
17261;SDS011;9873;52.236;21.002;2023-07-24T11:42:35;5.47;;;3.00;;
17261;SDS011;9873;52.236;21.002;2023-07-24T11:52:43;3.75;;;2.70;;
17261;SDS011;9873;52.236;21.002;2023-07-24T12:02:58;5.75;;;2.90;;
17261;SDS011;9873;52.236;21.002;2023-07-24T12:13:02;4.45;;;2.90;;
17261;SDS011;9873;52.236;21.002;2023-07-24T12:23:07;4.50;;;2.55;;
17261;SDS011;9873;52.236;21.002;2023-07-24T12:33:09;3.85;;;3.30;;
17261;SDS011;9873;52.236;21.002;2023-07-24T12:43:14;3.92;;;3.10;;
17261;SDS011;9873;52.236;21.002;2023-07-24T12:53:22;3.72;;;3.10;;
17261;SDS011;9873;52.236;21.002;2023-07-24T13:03:33;5.35;;;3.17;;
17261;SDS011;9873;52.236;21.002;2023-07-24T13:13:37;4.00;;;3.08;;
17261;SDS011;9873;52.236;21.002;2023-07-24T13:23:40;5.13;;;2.90;;
17261;SDS011;9873;52.236;21.002;2023-07-24T13:33:48;4.90;;;3.50;;
17261;SDS011;9873;52.236;21.002;2023-07-24T13:43:50;5.32;;;3.20;;
17261;SDS011;9873;52.236;21.002;2023-07-24T13:53:58;9.57;;;2.88;;
17261;SDS011;9873;52.236;21.002;2023-07-24T14:04:03;3.88;;;3.35;;
17261;SDS011;9873;52.236;21.002;2023-07-24T14:14:11;4.32;;;3.60;;
17261;SDS011;9873;52.236;21.002;2023-07-24T14:24:16;4.93;;;2.80;;
17261;SDS011;9873;52.236;21.002;2023-07-24T14:34:21;4.80;;;3.20;;
17261;SDS011;9873;52.236;21.002;2023-07-24T14:44:23;5.63;;;3.13;;
17261;SDS011;9873;52.236;21.002;2023-07-24T14:54:31;4.88;;;2.78;;
17261;SDS011;9873;52.236;21.002;2023-07-24T15:04:38;4.40;;;3.20;;
17261;SDS011;9873;52.236;21.002;2023-07-24T15:14:41;5.07;;;3.33;;
17261;SDS011;9873;52.236;21.002;2023-07-24T15:24:48;4.40;;;3.15;;
17261;SDS011;9873;52.236;21.002;2023-07-24T15:34:53;10.38;;;3.10;;
17261;SDS011;9873;52.236;21.002;2023-07-24T15:44:56;5.73;;;3.87;;
17261;SDS011;9873;52.236;21.002;2023-07-24T15:55:00;4.63;;;3.63;;
17261;SDS011;9873;52.236;21.002;2023-07-24T16:05:04;5.93;;;4.22;;
17261;SDS011;9873;52.236;21.002;2023-07-24T16:15:09;6.47;;;4.00;;
17261;SDS011;9873;52.236;21.002;2023-07-24T16:25:17;6.05;;;3.90;;
17261;SDS011;9873;52.236;21.002;2023-07-24T16:35:22;5.97;;;3.60;;
17261;SDS011;9873;52.236;21.002;2023-07-24T16:45:30;9.00;;;4.15;;
17261;SDS011;9873;52.236;21.002;2023-07-24T16:55:39;5.93;;;3.80;;
17261;SDS011;9873;52.236;21.002;2023-07-24T17:05:45;6.43;;;4.13;;
17261;SDS011;9873;52.236;21.002;2023-07-24T17:15:52;5.50;;;3.80;;
17261;SDS011;9873;52.236;21.002;2023-07-24T17:25:55;5.88;;;3.53;;
17261;SDS011;9873;52.236;21.002;2023-07-24T17:36:01;5.63;;;4.22;;
17261;SDS011;9873;52.236;21.002;2023-07-24T17:46:06;8.00;;;4.82;;
17261;SDS011;9873;52.236;21.002;2023-07-24T17:56:12;8.40;;;4.90;;
17261;SDS011;9873;52.236;21.002;2023-07-24T18:06:19;6.95;;;4.65;;
17261;SDS011;9873;52.236;21.002;2023-07-24T18:16:25;8.68;;;5.25;;
17261;SDS011;9873;52.236;21.002;2023-07-24T18:26:33;8.88;;;5.38;;
17261;SDS011;9873;52.236;21.002;2023-07-24T18:36:36;7.57;;;5.43;;
17261;SDS011;9873;52.236;21.002;2023-07-24T18:46:38;6.47;;;5.25;;
17261;SDS011;9873;52.236;21.002;2023-07-24T18:56:40;10.35;;;6.20;;
17261;SDS011;9873;52.236;21.002;2023-07-24T19:06:47;8.63;;;5.75;;
17261;SDS011;9873;52.236;21.002;2023-07-24T19:16:50;6.60;;;4.72;;
17261;SDS011;9873;52.236;21.002;2023-07-24T19:26:53;8.95;;;4.88;;
17261;SDS011;9873;52.236;21.002;2023-07-24T19:36:59;6.95;;;4.53;;
17261;SDS011;9873;52.236;21.002;2023-07-24T19:47:06;8.45;;;4.35;;
17261;SDS011;9873;52.236;21.002;2023-07-24T19:57:11;7.18;;;4.53;;
17261;SDS011;9873;52.236;21.002;2023-07-24T20:07:20;6.75;;;4.38;;
17261;SDS011;9873;52.236;21.002;2023-07-24T20:17:28;5.40;;;3.92;;
17261;SDS011;9873;52.236;21.002;2023-07-24T20:27:35;5.90;;;4.35;;
17261;SDS011;9873;52.236;21.002;2023-07-24T20:37:42;7.55;;;4.68;;
17261;SDS011;9873;52.236;21.002;2023-07-24T20:47:46;7.53;;;5.30;;
17261;SDS011;9873;52.236;21.002;2023-07-24T20:57:53;8.13;;;4.97;;
17261;SDS011;9873;52.236;21.002;2023-07-24T21:07:56;6.57;;;5.03;;
17261;SDS011;9873;52.236;21.002;2023-07-24T21:18:03;6.63;;;4.65;;
17261;SDS011;9873;52.236;21.002;2023-07-24T21:28:05;7.22;;;5.38;;
17261;SDS011;9873;52.236;21.002;2023-07-24T21:38:07;7.68;;;5.10;;
17261;SDS011;9873;52.236;21.002;2023-07-24T21:48:09;9.35;;;5.25;;
17261;SDS011;9873;52.236;21.002;2023-07-24T21:58:13;7.87;;;5.47;;
17261;SDS011;9873;52.236;21.002;2023-07-24T22:08:18;7.63;;;5.20;;
17261;SDS011;9873;52.236;21.002;2023-07-24T22:18:23;9.07;;;5.28;;
17261;SDS011;9873;52.236;21.002;2023-07-24T22:28:25;6.70;;;4.72;;
17261;SDS011;9873;52.236;21.002;2023-07-24T22:38:27;8.43;;;5.18;;
17261;SDS011;9873;52.236;21.002;2023-07-24T22:48:35;9.35;;;5.47;;
17261;SDS011;9873;52.236;21.002;2023-07-24T22:58:59;7.82;;;5.78;;
17261;SDS011;9873;52.236;21.002;2023-07-24T23:09:17;8.70;;;5.82;;
17261;SDS011;9873;52.236;21.002;2023-07-24T23:19:24;8.82;;;5.85;;
17261;SDS011;9873;52.236;21.002;2023-07-24T23:29:29;11.00;;;5.68;;
17261;SDS011;9873;52.236;21.002;2023-07-24T23:39:37;9.60;;;6.00;;
17261;SDS011;9873;52.236;21.002;2023-07-24T23:49:44;10.45;;;6.18;;
17261;SDS011;9873;52.236;21.002;2023-07-24T23:59:48;8.55;;;6.18;;
